createdAt,value
2023-02-11T00:01:56.872Z,102445.06
2023-02-11T00:04:23.307Z,102446.94
2023-02-11T00:06:49.639Z,102435.53
2023-02-11T00:09:15.987Z,102435.72
2023-02-11T00:11:42.321Z,102433.94
2023-02-11T00:14:30.262Z,102427.88
2023-02-11T00:16:56.681Z,102427.03
2023-02-11T00:22:16.360Z,102428.09
2023-02-11T00:24:57.870Z,102425.56
2023-02-11T00:28:04.768Z,102429.91
2023-02-11T00:30:31.148Z,102424.81
2023-02-11T00:33:00.314Z,102413.44
2023-02-11T00:35:39.100Z,102410.00
2023-02-11T00:38:05.423Z,102407.47
2023-02-11T00:40:59.747Z,102403.13
2023-02-11T00:43:26.123Z,102384.22
2023-02-11T00:46:01.812Z,102381.81
2023-02-11T00:48:31.586Z,102380.19
2023-02-11T00:51:19.367Z,102372.34
2023-02-11T00:53:51.934Z,102370.75
2023-02-11T00:56:18.269Z,102361.09
2023-02-11T00:58:59.512Z,102355.13
2023-02-11T01:01:28.917Z,102342.25
2023-02-11T01:07:51.338Z,102354.81
2023-02-11T01:17:07.518Z,102365.06
2023-02-11T01:19:33.841Z,102363.63
2023-02-11T01:28:50.016Z,102365.91
2023-02-11T01:37:59.855Z,102388.34
2023-02-11T01:47:16.992Z,102397.34
2023-02-11T02:00:04.463Z,102372.38
2023-02-11T02:02:49.420Z,102374.16
2023-02-11T02:05:28.126Z,102372.44
2023-02-11T02:08:17.517Z,102369.06
2023-02-11T02:14:05.779Z,102367.53
2023-02-11T02:16:40.286Z,102387.53
2023-02-11T02:19:36.209Z,102383.28
2023-02-11T02:22:49.595Z,102382.50
2023-02-11T02:25:15.891Z,102374.72
2023-02-11T02:28:03.810Z,102363.25
2023-02-11T02:30:39.408Z,102359.88
2023-02-11T02:33:39.893Z,102335.41
2023-02-11T02:36:21.163Z,102338.97
2023-02-11T02:39:27.961Z,102326.69
2023-02-11T02:42:15.911Z,102315.38
2023-02-11T02:45:00.178Z,102310.13
2023-02-11T02:47:48.626Z,102321.66
2023-02-11T02:53:49.321Z,102315.06
2023-02-11T02:56:37.650Z,102319.63
2023-02-11T02:59:28.890Z,102320.53
2023-02-11T03:02:26.377Z,102318.06
2023-02-11T03:05:17.789Z,102310.34
2023-02-11T03:08:02.342Z,102307.75
2023-02-11T03:13:49.279Z,102303.69
2023-02-11T03:16:40.368Z,102294.63
2023-02-11T03:19:40.686Z,102304.41
2023-02-11T03:22:21.925Z,102293.06
2023-02-11T03:28:03.931Z,102298.31
2023-02-11T03:34:04.083Z,102281.78
2023-02-11T03:36:52.481Z,102295.84
2023-02-11T03:39:31.712Z,102301.16
2023-02-11T03:42:17.318Z,102296.84
2023-02-11T03:44:56.297Z,102296.84
2023-02-11T03:47:43.961Z,102309.88
2023-02-11T03:50:12.796Z,102328.31
2023-02-11T03:52:39.246Z,102332.56
2023-02-11T03:55:11.642Z,102335.28
2023-02-11T03:57:38.260Z,102337.03
2023-02-11T04:00:05.210Z,102327.47
2023-02-11T04:02:33.527Z,102338.81
2023-02-11T04:04:59.873Z,102334.41
2023-02-11T04:07:26.365Z,102340.53
2023-02-11T04:09:53.112Z,102337.03
2023-02-11T04:12:19.883Z,102340.53
2023-02-11T04:14:46.241Z,102345.75
2023-02-11T04:17:12.638Z,102338.81
2023-02-11T04:19:40.850Z,102323.91
2023-02-11T04:22:07.341Z,102333.56
2023-02-11T04:24:33.793Z,102327.41
2023-02-11T04:27:00.406Z,102325.69
2023-02-11T04:29:26.817Z,102310.81
2023-02-11T04:31:53.186Z,102309.94
2023-02-11T04:34:19.566Z,102311.81
2023-02-11T04:37:26.577Z,102310.13
2023-02-11T04:40:08.524Z,102303.09
2023-02-11T04:42:56.344Z,102307.50
2023-02-11T04:45:31.838Z,102310.19
2023-02-11T04:47:58.131Z,102318.28
2023-02-11T04:50:24.470Z,102306.06
2023-02-11T04:56:59.666Z,102293.97
2023-02-11T05:09:40.538Z,102256.50
2023-02-11T05:12:22.258Z,102247.72
2023-02-11T05:15:07.249Z,102246.78
2023-02-11T05:17:42.376Z,102252.81
2023-02-11T05:20:20.993Z,102244.88
2023-02-11T05:22:56.433Z,102247.50
2023-02-11T05:32:09.558Z,102221.41
2023-02-11T05:34:45.112Z,102232.84
2023-02-11T05:37:26.815Z,102248.66
2023-02-11T05:39:56.015Z,102262.78
2023-02-11T05:42:25.330Z,102277.75
2023-02-11T05:49:06.909Z,102286.59
2023-02-11T05:51:33.226Z,102291.84
2023-02-11T06:00:39.469Z,102316.47
2023-02-11T06:03:05.868Z,102308.53
2023-02-11T06:05:32.355Z,102302.47
2023-02-11T06:07:59.182Z,102299.78
2023-02-11T06:13:47.685Z,102295.34
2023-02-11T06:16:14.117Z,102311.09
2023-02-11T06:18:40.500Z,102320.72
2023-02-11T06:21:07.815Z,102318.94
2023-02-11T06:30:32.822Z,102310.28
2023-02-11T06:33:11.531Z,102310.34
2023-02-11T06:35:41.026Z,102312.13
2023-02-11T06:38:07.350Z,102306.88
2023-02-11T06:40:33.657Z,102320.94
2023-02-11T06:43:34.115Z,102319.25
2023-02-11T06:46:00.428Z,102322.81
2023-02-11T06:48:26.786Z,102325.50
2023-02-11T06:50:53.118Z,102322.94
2023-02-11T06:53:19.475Z,102318.53
2023-02-11T06:55:45.788Z,102327.31
2023-02-11T06:58:12.109Z,102327.41
2023-02-11T07:00:38.555Z,102330.03
2023-02-11T07:03:04.933Z,102337.97
2023-02-11T07:05:31.433Z,102335.28
2023-02-11T07:07:57.763Z,102352.09
2023-02-11T07:10:24.164Z,102356.50
2023-02-11T07:12:50.521Z,102355.66
2023-02-11T07:15:16.836Z,102347.78
2023-02-11T07:17:43.241Z,102346.13
2023-02-11T07:20:12.362Z,102371.69
2023-02-11T07:22:38.691Z,102370.78
2023-02-11T07:25:05.185Z,102381.34
2023-02-11T07:27:31.578Z,102378.72
2023-02-11T07:29:57.917Z,102384.91
2023-02-11T07:32:24.258Z,102391.00
2023-02-11T07:34:50.639Z,102393.69
2023-02-11T07:37:17.010Z,102398.19
2023-02-11T07:39:43.309Z,102399.97
2023-02-11T07:42:09.607Z,102386.75
2023-02-11T07:44:36.940Z,102400.88
2023-02-11T07:47:03.615Z,102393.06
2023-02-11T07:49:29.932Z,102404.44
2023-02-11T07:51:56.244Z,102404.56
2023-02-11T07:54:22.541Z,102428.41
2023-02-11T07:56:49.011Z,102416.94
2023-02-11T07:59:15.338Z,102433.66
2023-02-11T08:01:41.678Z,102430.28
2023-02-11T08:04:08.086Z,102422.47
2023-02-11T08:06:34.993Z,102428.59
2023-02-11T08:09:05.307Z,102427.78
2023-02-11T08:11:32.062Z,102432.25
2023-02-11T08:13:58.405Z,102428.59
2023-02-11T08:16:26.234Z,102423.53
2023-02-11T08:18:53.122Z,102422.69
2023-02-11T08:21:20.081Z,102431.47
2023-02-11T08:23:46.457Z,102432.31
2023-02-11T08:26:14.584Z,102428.00
2023-02-11T08:28:42.561Z,102442.94
2023-02-11T08:31:35.146Z,102449.03
2023-02-11T08:34:02.354Z,102454.34
2023-02-11T08:36:29.929Z,102454.28
2023-02-11T08:39:08.581Z,102465.81
2023-02-11T08:41:38.674Z,102456.22
2023-02-11T08:44:05.081Z,102450.09
2023-02-11T08:46:31.559Z,102450.22
2023-02-11T08:48:58.047Z,102456.38
2023-02-11T08:51:28.612Z,102445.03
2023-02-11T08:53:55.367Z,102451.91
2023-02-11T08:56:23.150Z,102448.38
2023-02-11T08:58:49.634Z,102457.94
2023-02-11T09:01:17.727Z,102450.00
2023-02-11T09:03:44.592Z,102455.38
2023-02-11T09:06:11.741Z,102462.41
2023-02-11T09:08:39.104Z,102457.16
2023-02-11T09:11:05.878Z,102449.28
2023-02-11T09:13:32.432Z,102453.66
2023-02-11T09:15:59.722Z,102451.13
2023-02-11T09:18:26.309Z,102459.06
2023-02-11T09:20:52.870Z,102469.69
2023-02-11T09:23:19.392Z,102469.69
2023-02-11T09:25:45.791Z,102477.78
2023-02-11T09:28:12.184Z,102476.03
2023-02-11T09:30:38.828Z,102481.53
2023-02-11T09:33:05.280Z,102475.44
2023-02-11T09:35:32.620Z,102479.75
2023-02-11T09:37:58.951Z,102469.19
2023-02-11T09:40:25.290Z,102464.16
2023-02-11T09:43:04.194Z,102468.84
2023-02-11T09:45:31.259Z,102473.38
2023-02-11T09:48:06.166Z,102484.97
2023-02-11T09:50:34.627Z,102482.53
2023-02-11T09:53:01.086Z,102491.50
2023-02-11T09:55:37.492Z,102487.22
2023-02-11T09:58:05.279Z,102492.56
2023-02-11T10:00:36.129Z,102490.13
2023-02-11T10:03:21.277Z,102483.75
2023-02-11T10:06:07.184Z,102487.31
2023-02-11T10:08:52.462Z,102478.47
2023-02-11T10:11:33.905Z,102494.25
2023-02-11T10:14:15.974Z,102489.00
2023-02-11T10:16:45.375Z,102490.78
2023-02-11T10:19:23.981Z,102497.06
2023-02-11T10:21:56.611Z,102496.31
2023-02-11T10:24:23.135Z,102492.00
2023-02-11T10:26:49.466Z,102482.38
2023-02-11T10:29:26.196Z,102498.03
2023-02-11T10:31:54.186Z,102501.56
2023-02-11T10:34:21.682Z,102506.75
2023-02-11T10:36:47.980Z,102512.00
2023-02-11T10:39:14.411Z,102520.06
2023-02-11T10:41:47.468Z,102524.50
2023-02-11T10:44:31.041Z,102521.91
2023-02-11T10:46:59.416Z,102507.84
2023-02-11T10:49:36.809Z,102512.25
2023-02-11T10:52:12.182Z,102523.78
2023-02-11T10:54:38.638Z,102527.97
2023-02-11T10:57:04.957Z,102535.13
2023-02-11T10:59:33.129Z,102548.41
2023-02-11T11:02:04.616Z,102543.94
2023-02-11T11:04:32.107Z,102552.06
2023-02-11T11:07:09.551Z,102534.75
2023-02-11T11:09:43.717Z,102524.22
2023-02-11T11:12:25.197Z,102507.53
2023-02-11T11:14:59.232Z,102513.88
2023-02-11T11:17:29.049Z,102495.84
2023-02-11T11:20:14.023Z,102509.66
2023-02-11T11:22:41.318Z,102520.66
2023-02-11T11:25:27.997Z,102524.41
2023-02-11T11:27:56.060Z,102525.06
2023-02-11T11:30:23.496Z,102520.66
2023-02-11T11:32:49.971Z,102527.13
2023-02-11T11:35:30.005Z,102536.31
2023-02-11T11:38:02.078Z,102517.84
2023-02-11T11:40:30.169Z,102538.72
2023-02-11T11:43:07.507Z,102540.81
2023-02-11T11:45:33.870Z,102547.50
2023-02-11T11:48:02.888Z,102547.84
2023-02-11T11:50:29.177Z,102554.88
2023-02-11T11:53:01.570Z,102546.00
2023-02-11T11:55:33.334Z,102543.84
2023-02-11T11:57:59.712Z,102545.81
2023-02-11T12:00:25.996Z,102550.16
2023-02-11T12:02:55.465Z,102543.44
2023-02-11T12:05:32.236Z,102545.25
2023-02-11T12:08:07.573Z,102559.44
2023-02-11T12:10:52.929Z,102554.66
2023-02-11T12:13:19.905Z,102556.00
2023-02-11T12:15:46.173Z,102566.03
2023-02-11T12:18:15.458Z,102573.09
2023-02-11T12:20:44.916Z,102580.16
2023-02-11T12:23:11.207Z,102578.47
2023-02-11T12:25:46.509Z,102575.81
2023-02-11T12:28:18.895Z,102575.09
2023-02-11T12:30:54.593Z,102575.34
2023-02-11T12:33:39.995Z,102570.13
2023-02-11T12:36:25.176Z,102570.00
2023-02-11T12:39:10.362Z,102568.44
2023-02-11T12:42:09.221Z,102578.03
2023-02-11T12:44:54.153Z,102566.69
2023-02-11T12:47:25.962Z,102578.19
2023-02-11T12:50:04.394Z,102589.22
2023-02-11T12:52:42.611Z,102586.09
2023-02-11T12:55:25.868Z,102594.06
2023-02-11T12:57:53.582Z,102596.66
2023-02-11T13:00:24.839Z,102590.63
2023-02-11T13:03:00.133Z,102603.63
2023-02-11T13:05:33.761Z,102589.22
2023-02-11T13:08:05.600Z,102596.28
2023-02-11T13:10:34.019Z,102588.22
2023-02-11T13:13:16.777Z,102595.94
2023-02-11T13:15:44.477Z,102601.94
2023-02-11T13:18:29.885Z,102604.53
2023-02-11T13:21:01.185Z,102617.63
2023-02-11T13:23:43.715Z,102614.84
2023-02-11T13:26:32.047Z,102612.09
2023-02-11T13:29:10.228Z,102608.63
2023-02-11T13:31:36.664Z,102606.78
2023-02-11T13:34:03.868Z,102609.47
2023-02-11T13:36:32.890Z,102616.53
2023-02-11T13:39:00.636Z,102619.22
2023-02-11T13:41:52.491Z,102616.59
2023-02-11T13:44:22.600Z,102621.91
2023-02-11T13:47:01.262Z,102628.75
2023-02-11T13:49:31.247Z,102637.59
2023-02-11T13:51:58.745Z,102643.72
2023-02-11T13:54:28.434Z,102646.06
2023-02-11T13:57:13.458Z,102647.81
2023-02-11T13:59:39.735Z,102639.91
2023-02-11T14:02:38.940Z,102640.56
2023-02-11T14:05:24.096Z,102637.88
2023-02-11T14:08:39.417Z,102635.28
2023-02-11T14:11:14.668Z,102644.94
2023-02-11T14:13:47.087Z,102647.47
2023-02-11T14:16:22.584Z,102648.41
2023-02-11T14:18:54.503Z,102655.38
2023-02-11T14:21:30.713Z,102655.44
2023-02-11T14:24:04.782Z,102668.66
2023-02-11T14:26:36.461Z,102671.28
2023-02-11T14:29:24.630Z,102678.47
2023-02-11T14:32:00.521Z,102679.69
2023-02-11T14:34:37.970Z,102684.16
2023-02-11T14:37:16.300Z,102693.72
2023-02-11T14:39:54.584Z,102698.03
2023-02-11T14:42:22.886Z,102696.84
2023-02-11T14:44:50.619Z,102696.91
2023-02-11T14:47:23.291Z,102714.31
2023-02-11T14:49:50.577Z,102713.44
2023-02-11T14:52:25.534Z,102710.81
2023-02-11T14:54:54.161Z,102720.63
2023-02-11T14:57:20.646Z,102707.50
2023-02-11T15:00:13.224Z,102704.16
2023-02-11T15:02:39.719Z,102705.16
2023-02-11T15:05:18.962Z,102712.34
2023-02-11T15:07:47.040Z,102720.41
2023-02-11T15:10:39.675Z,102732.69
2023-02-11T15:13:06.001Z,102728.28
2023-02-11T15:15:32.984Z,102730.91
2023-02-11T15:18:01.522Z,102741.47
2023-02-11T15:20:29.099Z,102735.41
2023-02-11T15:22:57.378Z,102740.75
2023-02-11T15:25:24.017Z,102732.81
2023-02-11T15:27:52.964Z,102727.44
2023-02-11T15:30:22.289Z,102726.41
2023-02-11T15:32:49.182Z,102728.88
2023-02-11T15:35:15.569Z,102739.41
2023-02-11T15:37:41.953Z,102746.34
2023-02-11T15:40:19.520Z,102747.13
2023-02-11T15:43:06.443Z,102749.66
2023-02-11T15:45:38.266Z,102756.66
2023-02-11T15:48:10.732Z,102749.47
2023-02-11T15:50:38.062Z,102760.94
2023-02-11T15:53:24.759Z,102752.94
2023-02-11T15:55:52.422Z,102744.78
2023-02-11T15:58:19.107Z,102755.22
2023-02-11T16:00:47.578Z,102759.28
2023-02-11T16:03:21.018Z,102759.78
2023-02-11T16:05:47.310Z,102762.06
2023-02-11T16:08:24.499Z,102779.34
2023-02-11T16:10:58.849Z,102781.75
2023-02-11T16:13:26.194Z,102788.72
2023-02-11T16:15:58.272Z,102787.03
2023-02-11T16:18:31.061Z,102782.69
2023-02-11T16:21:03.933Z,102787.09
2023-02-11T16:23:34.981Z,102779.19
2023-02-11T16:26:05.527Z,102784.47
2023-02-11T16:28:32.013Z,102775.59
2023-02-11T16:31:01.508Z,102769.31
2023-02-11T16:33:28.905Z,102780.53
2023-02-11T16:35:55.347Z,102785.63
2023-02-11T16:38:21.712Z,102802.06
2023-02-11T16:40:51.443Z,102819.34
2023-02-11T16:43:18.584Z,102814.84
2023-02-11T16:45:45.030Z,102820.88
2023-02-11T16:48:14.094Z,102825.25
2023-02-11T16:50:43.673Z,102826.03
2023-02-11T16:53:10.374Z,102834.72
2023-02-11T16:55:36.688Z,102825.06
2023-02-11T16:58:03.023Z,102826.78
2023-02-11T17:00:30.167Z,102839.13
2023-02-11T17:02:56.528Z,102839.91
2023-02-11T17:05:24.828Z,102850.50
2023-02-11T17:07:51.946Z,102854.81
2023-02-11T17:10:19.770Z,102850.25
2023-02-11T17:12:46.645Z,102856.22
2023-02-11T17:15:12.941Z,102859.47
2023-02-11T17:17:39.267Z,102868.03
2023-02-11T17:20:05.887Z,102879.31
2023-02-11T17:22:32.648Z,102877.53
2023-02-11T17:24:58.995Z,102888.84
2023-02-11T17:27:25.405Z,102890.47
2023-02-11T17:29:51.704Z,102894.69
2023-02-11T17:32:18.134Z,102886.56
2023-02-11T17:34:44.506Z,102880.19
2023-02-11T17:37:10.835Z,102893.34
2023-02-11T17:39:37.954Z,102901.25
2023-02-11T17:42:05.918Z,102910.09
2023-02-11T17:44:32.910Z,102914.53
2023-02-11T17:46:59.231Z,102925.16
2023-02-11T17:49:25.587Z,102928.72
2023-02-11T17:51:51.977Z,102925.16
2023-02-11T17:54:19.292Z,102932.97
2023-02-11T17:56:46.202Z,102933.81
2023-02-11T17:59:13.286Z,102939.91
2023-02-11T18:01:40.517Z,102938.13
2023-02-11T18:04:07.461Z,102940.66
2023-02-11T18:06:34.523Z,102948.47
2023-02-11T18:09:02.283Z,102945.84
2023-02-11T18:11:30.369Z,102936.09
2023-02-11T18:13:58.914Z,102944.59
2023-02-11T18:16:28.621Z,102949.56
2023-02-11T18:18:55.583Z,102959.91
2023-02-11T18:21:22.284Z,102952.63
2023-02-11T18:23:49.072Z,102967.44
2023-02-11T18:26:17.076Z,102962.19
2023-02-11T18:28:45.838Z,102956.94
2023-02-11T18:31:12.789Z,102970.06
2023-02-11T18:33:39.980Z,102961.28
2023-02-11T18:36:07.132Z,102954.31
2023-02-11T18:38:33.556Z,102960.34
2023-02-11T18:41:00.064Z,102955.09
2023-02-11T18:43:31.468Z,102964.66
2023-02-11T18:45:57.841Z,102962.84
2023-02-11T18:48:26.608Z,102967.19
2023-02-11T18:50:53.622Z,102961.88
2023-02-11T18:53:20.819Z,102964.41
2023-02-11T18:55:47.376Z,102981.91
2023-02-11T18:58:15.209Z,102986.44
2023-02-11T19:00:43.916Z,102976.78
2023-02-11T19:03:10.256Z,102976.03
2023-02-11T19:05:43.328Z,102969.06
2023-02-11T19:08:09.818Z,102980.63
2023-02-11T19:10:39.502Z,102995.72
2023-02-11T19:13:05.799Z,102997.59
2023-02-11T19:15:32.723Z,103002.13
2023-02-11T19:17:59.029Z,103009.19
2023-02-11T19:20:25.335Z,103002.25
2023-02-11T19:22:51.648Z,102997.91
2023-02-11T19:25:18.095Z,102998.75
2023-02-11T19:27:44.603Z,103011.06
2023-02-11T19:30:11.175Z,103013.69
2023-02-11T19:32:37.514Z,103011.97
2023-02-11T19:35:03.995Z,103012.84
2023-02-11T19:37:30.317Z,103018.84
2023-02-11T19:39:56.622Z,103021.50
2023-02-11T19:42:24.320Z,103031.91
2023-02-11T19:44:52.163Z,103021.31
2023-02-11T19:47:19.424Z,103024.88
2023-02-11T19:49:45.812Z,103032.75
2023-02-11T19:52:12.175Z,103039.72
2023-02-11T19:54:38.533Z,103035.31
2023-02-11T19:57:04.855Z,103038.75
2023-02-11T19:59:31.172Z,103038.69
2023-02-11T20:01:57.624Z,103054.44
2023-02-11T20:04:25.136Z,103059.53
2023-02-11T20:06:51.526Z,103060.38
2023-02-11T20:09:17.890Z,103059.53
2023-02-11T20:11:44.598Z,103064.81
2023-02-11T20:14:12.557Z,103063.00
2023-02-11T20:16:48.091Z,103069.97
2023-02-11T20:19:18.001Z,103065.47
2023-02-11T20:21:46.963Z,103071.56
2023-02-11T20:24:13.805Z,103080.34
2023-02-11T20:26:42.856Z,103069.84
2023-02-11T20:29:09.846Z,103075.91
2023-02-11T20:31:36.629Z,103083.72
2023-02-11T20:34:03.274Z,103081.91
2023-02-11T20:36:31.983Z,103073.13
2023-02-11T20:38:59.062Z,103083.66
2023-02-11T20:41:26.668Z,103079.16
2023-02-11T20:43:53.858Z,103093.06
2023-02-11T20:46:21.979Z,103100.78
2023-02-11T20:48:48.460Z,103096.28
2023-02-11T20:51:17.100Z,103101.47
2023-02-11T20:53:47.838Z,103110.97
2023-02-11T20:56:14.721Z,103116.13
2023-02-11T20:58:41.314Z,103109.91
2023-02-11T21:01:07.655Z,103118.69
2023-02-11T21:03:34.110Z,103113.28
2023-02-11T21:06:00.826Z,103117.63
2023-02-11T21:08:27.158Z,103119.34
2023-02-11T21:10:53.440Z,103125.50
2023-02-11T21:13:19.776Z,103121.09
2023-02-11T21:15:46.130Z,103130.69
2023-02-11T21:18:13.318Z,103137.72
2023-02-11T21:20:43.140Z,103144.72
2023-02-11T21:23:09.472Z,103145.59
2023-02-11T21:25:35.760Z,103139.47
2023-02-11T21:28:02.097Z,103137.69
2023-02-11T21:30:28.483Z,103144.56
2023-02-11T21:32:54.770Z,103150.72
2023-02-11T21:35:21.071Z,103157.59
2023-02-11T21:37:47.371Z,103155.06
2023-02-11T21:40:14.859Z,103159.41
2023-02-11T21:42:41.440Z,103161.16
2023-02-11T21:45:08.017Z,103162.94
2023-02-11T21:47:34.352Z,103169.09
2023-02-11T21:50:00.654Z,103157.69
2023-02-11T21:52:27.038Z,103162.94
2023-02-11T21:54:53.339Z,103157.69
2023-02-11T21:57:19.731Z,103163.84
2023-02-11T21:59:46.063Z,103169.09
2023-02-11T22:02:12.365Z,103170.91
2023-02-11T22:04:38.707Z,103169.25
2023-02-11T22:07:05.045Z,103172.72
2023-02-11T22:09:31.358Z,103177.06
2023-02-11T22:11:57.753Z,103182.34
2023-02-11T22:14:24.150Z,103179.53
2023-02-11T22:16:50.569Z,103180.34
2023-02-11T22:19:17.404Z,103185.63
2023-02-11T22:21:43.721Z,103176.81
2023-02-11T22:24:10.207Z,103183.78
2023-02-11T22:26:36.607Z,103191.75
2023-02-11T22:29:03.174Z,103188.94
2023-02-11T22:31:31.559Z,103194.28
2023-02-11T22:33:58.639Z,103191.66
2023-02-11T22:36:26.398Z,103197.75
2023-02-11T22:38:53.202Z,103195.94
2023-02-11T22:41:20.047Z,103187.25
2023-02-11T22:43:46.605Z,103193.41
2023-02-11T22:46:14.191Z,103203.00
2023-02-11T22:48:40.543Z,103207.34
2023-02-11T22:51:07.949Z,103211.69
2023-02-11T22:53:34.652Z,103215.22
2023-02-11T22:56:08.736Z,103214.34
2023-02-11T22:58:35.694Z,103220.41
2023-02-11T23:01:02.554Z,103217.94
2023-02-11T23:03:28.902Z,103226.16
2023-02-11T23:05:57.373Z,103227.13
2023-02-11T23:08:23.808Z,103230.03
2023-02-11T23:10:50.186Z,103230.03
2023-02-11T23:13:16.508Z,103242.34
2023-02-11T23:15:43.783Z,103238.81
2023-02-11T23:18:10.893Z,103235.09
2023-02-11T23:20:38.415Z,103233.94
2023-02-11T23:23:04.992Z,103237.50
2023-02-11T23:25:31.956Z,103248.41
2023-02-11T23:27:58.532Z,103242.16
2023-02-11T23:30:24.893Z,103248.78
2023-02-11T23:32:51.952Z,103263.59
2023-02-11T23:35:24.810Z,103267.69
2023-02-11T23:37:51.838Z,103262.50
2023-02-11T23:40:19.017Z,103262.00
2023-02-11T23:42:45.806Z,103267.16
2023-02-11T23:45:12.465Z,103268.06
2023-02-11T23:47:39.685Z,103272.34
2023-02-11T23:50:07.029Z,103267.00
2023-02-11T23:52:33.356Z,103273.97
2023-02-11T23:54:59.675Z,103275.53
2023-02-11T23:57:25.973Z,103290.19
2023-02-11T23:59:52.287Z,103284.84
